Time;durP1;ratioP1;P1;durP2;ratioP2;P2;SDS_P1;SDS_P2;PMS_P1;PMS_P2;Temp;Humidity;BMP_temperature;BMP_pressure;BME280_temperature;BME280_humidity;BME280_pressure;Samples;Min_cycle;Max_cycle;Signal;HPM_P1;HPM_P2
2024/01/11 00:01:59;;;;;;;269.25;255.20;;;-4.60;99.90;;;;;;4975349;28;20047;-39
2024/01/11 00:04:26;;;;;;;272.33;257.85;;;-4.60;99.90;;;;;;4977505;28;20074;-40
2024/01/11 00:06:52;;;;;;;264.83;250.82;;;-4.60;99.90;;;;;;4979273;28;20050;-42
2024/01/11 00:09:17;;;;;;;258.50;245.02;;;-4.60;99.90;;;;;;4986557;28;20058;-43
2024/01/11 00:11:43;;;;;;;269.05;254.60;;;-4.60;99.90;;;;;;4983199;28;20061;-40
2024/01/11 00:14:09;;;;;;;267.08;252.90;;;-4.70;99.90;;;;;;4978733;28;20779;-38
2024/01/11 00:16:34;;;;;;;264.30;249.98;;;-4.70;99.90;;;;;;4984044;28;20061;-40
2024/01/11 00:19:00;;;;;;;263.48;249.38;;;-4.70;99.90;;;;;;4979844;28;20133;-41
2024/01/11 00:21:26;;;;;;;279.83;264.15;;;-4.70;99.90;;;;;;4980438;28;20043;-41
2024/01/11 00:23:52;;;;;;;276.08;261.58;;;-4.70;99.90;;;;;;4959044;28;20181;-41
2024/01/11 00:26:17;;;;;;;262.50;248.63;;;-4.80;99.90;;;;;;4984965;28;20071;-39
2024/01/11 00:28:43;;;;;;;275.48;261.00;;;-4.80;99.90;;;;;;4980369;28;20054;-31
2024/01/11 00:31:09;;;;;;;279.10;264.20;;;-4.80;99.90;;;;;;4978706;28;20073;-40
2024/01/11 00:33:34;;;;;;;282.33;267.30;;;-4.80;99.90;;;;;;4979528;28;20061;-40
2024/01/11 00:36:00;;;;;;;288.08;272.48;;;-4.80;99.90;;;;;;4980141;28;20401;-40
2024/01/11 00:38:26;;;;;;;284.50;269.58;;;-4.80;99.90;;;;;;4981926;28;20050;-38
2024/01/11 00:40:51;;;;;;;278.20;263.08;;;-4.90;99.90;;;;;;4990608;28;20050;-39
2024/01/11 00:43:17;;;;;;;286.48;271.13;;;-4.90;99.90;;;;;;4977751;28;20057;-41
2024/01/11 00:45:45;;;;;;;282.65;267.33;;;-4.90;99.90;;;;;;4963560;28;20077;-43
2024/01/11 00:48:12;;;;;;;280.80;265.83;;;-4.90;99.90;;;;;;4978724;28;20138;-40
2024/01/11 00:50:37;;;;;;;282.33;267.00;;;-4.90;99.90;;;;;;4980631;28;20050;-40
2024/01/11 00:53:03;;;;;;;277.63;262.67;;;-4.90;99.90;;;;;;4980161;28;20054;-38
2024/01/11 00:55:29;;;;;;;288.25;272.10;;;-4.90;99.90;;;;;;4978002;28;20068;-39
2024/01/11 00:57:55;;;;;;;282.00;266.48;;;-4.90;99.90;;;;;;4982662;28;20082;-38
2024/01/11 01:00:21;;;;;;;283.90;268.13;;;-4.90;99.90;;;;;;4979371;28;20146;-40
2024/01/11 01:02:46;;;;;;;286.17;270.05;;;-4.90;99.90;;;;;;4980342;28;20096;-40
2024/01/11 01:05:12;;;;;;;280.92;265.05;;;-4.90;99.90;;;;;;4981600;28;20055;-37
2024/01/11 01:07:38;;;;;;;279.33;263.40;;;-5.00;99.90;;;;;;4980498;28;20110;-42
2024/01/11 01:10:04;;;;;;;283.13;267.02;;;-5.00;99.90;;;;;;4965664;28;20130;-38
2024/01/11 01:12:29;;;;;;;279.23;263.45;;;-5.00;99.90;;;;;;4981545;28;20133;-41
2024/01/11 01:14:55;;;;;;;283.88;267.35;;;-5.00;99.90;;;;;;4981716;28;20050;-40
2024/01/11 01:17:22;;;;;;;283.55;267.42;;;-5.00;99.90;;;;;;4974575;28;20069;-39
2024/01/11 01:19:48;;;;;;;284.50;268.00;;;-5.00;99.90;;;;;;4956144;28;20496;-40
2024/01/11 01:22:13;;;;;;;275.15;259.23;;;-5.00;99.90;;;;;;4981028;28;20403;-40
2024/01/11 01:24:39;;;;;;;279.35;263.38;;;-5.00;99.90;;;;;;4983735;28;20425;-41
2024/01/11 01:27:05;;;;;;;273.33;257.33;;;-5.00;99.90;;;;;;4984092;28;20056;-37
2024/01/11 01:29:30;;;;;;;268.08;252.63;;;-5.00;99.90;;;;;;4983781;28;20137;-40
2024/01/11 01:31:56;;;;;;;262.27;246.80;;;-5.00;99.90;;;;;;4982245;28;20100;-39
2024/01/11 01:34:22;;;;;;;263.02;247.60;;;-5.10;99.90;;;;;;4981668;28;20053;-37
2024/01/11 01:36:47;;;;;;;268.38;252.45;;;-5.00;99.90;;;;;;4968351;28;20609;-38
2024/01/11 01:39:13;;;;;;;260.98;245.63;;;-5.00;99.90;;;;;;4978019;28;20050;-35
2024/01/11 01:41:39;;;;;;;255.15;239.93;;;-5.10;99.90;;;;;;4980146;28;20049;-40
2024/01/11 01:44:04;;;;;;;261.95;246.82;;;-5.10;99.90;;;;;;4977642;28;20451;-41
2024/01/11 01:46:30;;;;;;;261.55;246.07;;;-5.10;99.90;;;;;;4980119;28;20114;-39
2024/01/11 01:48:58;;;;;;;255.35;239.80;;;-5.10;99.90;;;;;;4979794;28;20385;-33
2024/01/11 01:51:26;;;;;;;244.50;229.93;;;-5.10;99.90;;;;;;4980540;28;20050;-32
2024/01/11 01:53:54;;;;;;;254.65;239.32;;;-5.10;99.90;;;;;;4980724;28;20113;-31
2024/01/11 01:56:20;;;;;;;249.38;234.40;;;-5.10;99.90;;;;;;4979402;28;20053;-31
2024/01/11 01:58:48;;;;;;;245.25;230.48;;;-5.10;99.90;;;;;;4980130;28;20054;-31
2024/01/11 02:01:14;;;;;;;246.52;232.23;;;-5.20;99.90;;;;;;4979297;28;20046;-32
2024/01/11 02:03:40;;;;;;;245.85;231.05;;;-5.20;99.90;;;;;;4981127;28;20061;-31
2024/01/11 02:06:07;;;;;;;240.77;226.38;;;-5.20;99.90;;;;;;4980783;28;20484;-40
2024/01/11 02:08:35;;;;;;;234.95;220.98;;;-5.20;99.90;;;;;;4981033;28;20489;-38
2024/01/11 02:11:01;;;;;;;238.82;224.63;;;-5.20;99.90;;;;;;4977266;28;20149;-38
2024/01/11 02:13:27;;;;;;;239.57;225.27;;;-5.20;99.90;;;;;;4976284;28;20134;-39
2024/01/11 02:15:52;;;;;;;243.18;228.68;;;-5.20;99.90;;;;;;4981362;28;20084;-38
2024/01/11 02:18:18;;;;;;;243.30;229.07;;;-5.20;99.90;;;;;;4979832;28;20049;-40
2024/01/11 02:20:44;;;;;;;242.98;228.55;;;-5.20;99.90;;;;;;4982052;28;20488;-38
2024/01/11 02:23:21;;;;;;;242.57;228.57;;;-5.20;99.90;;;;;;4964095;28;20051;-39
2024/01/11 02:25:47;;;;;;;245.40;231.38;;;-5.20;99.90;;;;;;4983085;28;20091;-39
2024/01/11 02:28:12;;;;;;;241.82;227.70;;;-5.20;99.90;;;;;;4977049;28;20125;-39
2024/01/11 02:30:38;;;;;;;238.88;224.85;;;-5.20;99.90;;;;;;4978882;28;20392;-37
2024/01/11 02:33:05;;;;;;;242.85;229.10;;;-5.20;99.90;;;;;;4976612;28;20134;-40
2024/01/11 02:35:31;;;;;;;241.25;227.45;;;-5.20;99.90;;;;;;4975095;28;20549;-37
2024/01/11 02:37:58;;;;;;;233.70;219.98;;;-5.20;99.90;;;;;;4974471;28;20062;-38
2024/01/11 02:40:25;;;;;;;233.18;219.90;;;-5.30;99.90;;;;;;4979635;28;20065;-37
2024/01/11 02:42:51;;;;;;;235.93;222.02;;;-5.30;99.90;;;;;;4959031;28;20050;-36
2024/01/11 02:45:17;;;;;;;234.82;221.38;;;-5.30;99.90;;;;;;4975437;28;20144;-40
2024/01/11 02:47:42;;;;;;;233.60;220.35;;;-5.30;99.90;;;;;;4976285;28;20053;-41
2024/01/11 02:50:08;;;;;;;233.30;220.23;;;-5.30;99.90;;;;;;4969045;28;20162;-39
2024/01/11 02:52:34;;;;;;;232.20;218.95;;;-5.30;99.90;;;;;;4977048;28;20503;-39
2024/01/11 02:55:00;;;;;;;225.40;212.38;;;-5.30;99.90;;;;;;4978232;28;20054;-39
2024/01/11 02:57:26;;;;;;;228.30;215.35;;;-5.40;99.90;;;;;;4981787;28;20065;-38
2024/01/11 02:59:52;;;;;;;232.02;218.63;;;-5.40;99.90;;;;;;4975760;28;20053;-40
2024/01/11 03:02:17;;;;;;;233.02;220.07;;;-5.40;99.90;;;;;;4979498;28;20374;-42
2024/01/11 03:04:43;;;;;;;234.05;220.32;;;-5.40;99.90;;;;;;4975957;28;20512;-41
2024/01/11 03:07:09;;;;;;;230.65;217.88;;;-5.40;99.90;;;;;;4978657;28;20053;-39
2024/01/11 03:09:35;;;;;;;223.55;210.68;;;-5.40;99.90;;;;;;4974706;28;20054;-40
2024/01/11 03:12:00;;;;;;;222.75;210.38;;;-5.40;99.90;;;;;;4978130;28;20523;-39
2024/01/11 03:14:26;;;;;;;217.70;205.55;;;-5.40;99.90;;;;;;4981169;28;20145;-37
2024/01/11 03:16:52;;;;;;;213.07;201.20;;;-5.40;99.90;;;;;;4976211;28;20054;-38
2024/01/11 03:19:18;;;;;;;221.25;208.93;;;-5.40;99.90;;;;;;4979854;28;20057;-38
2024/01/11 03:21:44;;;;;;;210.40;198.50;;;-5.40;99.90;;;;;;4959848;28;20149;-39
2024/01/11 03:24:10;;;;;;;209.82;197.60;;;-5.40;99.90;;;;;;4971166;28;20049;-37
2024/01/11 03:26:35;;;;;;;203.55;192.00;;;-5.40;99.90;;;;;;4977777;28;20058;-40
2024/01/11 03:29:01;;;;;;;203.23;191.80;;;-5.40;99.90;;;;;;4975816;28;20047;-31
2024/01/11 03:31:27;;;;;;;196.57;185.15;;;-5.40;99.90;;;;;;4977871;28;20057;-38
2024/01/11 03:33:53;;;;;;;194.90;183.93;;;-5.40;99.90;;;;;;4977236;28;20046;-40
2024/01/11 03:36:23;;;;;;;196.32;185.35;;;-5.40;99.90;;;;;;4981352;28;20105;-41
2024/01/11 03:38:49;;;;;;;200.93;190.13;;;-5.40;99.90;;;;;;4963816;28;20455;-40
2024/01/11 03:41:15;;;;;;;195.02;183.95;;;-5.30;99.90;;;;;;4975093;28;20046;-37
2024/01/11 03:43:40;;;;;;;192.75;181.82;;;-5.40;99.90;;;;;;4968575;28;20058;-40
2024/01/11 03:46:06;;;;;;;194.38;183.63;;;-5.30;99.90;;;;;;4979554;28;20200;-40
2024/01/11 03:48:31;;;;;;;188.07;177.32;;;-5.30;99.90;;;;;;4973819;28;20054;-39
2024/01/11 03:50:57;;;;;;;192.52;181.23;;;-5.30;99.90;;;;;;4980696;28;20050;-37
2024/01/11 03:53:23;;;;;;;182.18;171.88;;;-5.30;99.90;;;;;;4975694;28;20058;-41
2024/01/11 03:55:49;;;;;;;174.80;164.88;;;-5.30;99.90;;;;;;4978578;28;20501;-38
2024/01/11 03:58:14;;;;;;;174.77;164.50;;;-5.30;99.90;;;;;;4978142;28;20061;-38
2024/01/11 04:00:40;;;;;;;170.98;160.85;;;-5.30;99.90;;;;;;4963440;28;20455;-39
2024/01/11 04:03:09;;;;;;;174.32;164.32;;;-5.30;99.90;;;;;;4979273;28;20053;-38
2024/01/11 04:05:34;;;;;;;171.20;161.52;;;-5.30;99.90;;;;;;4981400;28;20093;-39
2024/01/11 04:08:04;;;;;;;165.77;156.07;;;-5.30;99.90;;;;;;4983445;28;20046;-40
2024/01/11 04:10:30;;;;;;;161.40;152.27;;;-5.30;99.90;;;;;;4979845;28;20057;-40
2024/01/11 04:12:56;;;;;;;156.45;147.35;;;-5.30;99.90;;;;;;4980766;28;20075;-37
2024/01/11 04:15:21;;;;;;;161.38;152.25;;;-5.30;99.90;;;;;;4982343;28;20046;-38
2024/01/11 04:17:47;;;;;;;152.90;143.77;;;-5.30;99.90;;;;;;4963697;28;20050;-38
2024/01/11 04:20:13;;;;;;;162.15;152.63;;;-5.30;99.90;;;;;;4990287;28;20081;-40
2024/01/11 04:22:39;;;;;;;153.27;144.43;;;-5.30;99.90;;;;;;4976581;28;20538;-39
2024/01/11 04:25:05;;;;;;;150.60;141.63;;;-5.30;99.90;;;;;;4977812;28;20046;-39
2024/01/11 04:27:31;;;;;;;144.82;136.27;;;-5.30;99.90;;;;;;4980331;28;20059;-40
2024/01/11 04:29:57;;;;;;;145.90;137.18;;;-5.30;99.90;;;;;;4982134;28;20051;-40
2024/01/11 04:32:22;;;;;;;150.52;141.68;;;-5.30;99.90;;;;;;4979545;28;20082;-40
2024/01/11 04:34:48;;;;;;;149.18;140.32;;;-5.30;99.90;;;;;;4980044;28;20054;-39
2024/01/11 04:37:14;;;;;;;156.20;146.93;;;-5.30;99.90;;;;;;4981394;28;20467;-39
2024/01/11 04:39:39;;;;;;;166.30;156.65;;;-5.40;99.90;;;;;;4977572;28;20051;-39
2024/01/11 04:42:05;;;;;;;154.43;145.07;;;-5.40;99.90;;;;;;4979314;28;20054;-39
2024/01/11 04:44:31;;;;;;;155.15;145.88;;;-5.40;99.90;;;;;;4965611;28;20053;-37
2024/01/11 04:46:57;;;;;;;161.15;151.60;;;-5.40;99.90;;;;;;4965997;28;20444;-40
2024/01/11 04:49:23;;;;;;;155.35;146.38;;;-5.40;99.90;;;;;;4977155;28;20089;-39
2024/01/11 04:51:48;;;;;;;150.88;141.77;;;-5.40;99.90;;;;;;4982943;28;20460;-38
2024/01/11 04:54:14;;;;;;;160.82;150.80;;;-5.40;99.90;;;;;;4962619;28;20435;-37
2024/01/11 04:56:40;;;;;;;157.85;148.32;;;-5.40;99.90;;;;;;4989462;28;20055;-39
2024/01/11 04:59:05;;;;;;;149.48;140.45;;;-5.40;99.90;;;;;;4975737;28;20046;-39
2024/01/11 05:01:31;;;;;;;147.65;139.05;;;-5.50;99.90;;;;;;4978427;28;20060;-40
2024/01/11 05:03:57;;;;;;;146.82;137.85;;;-5.50;99.90;;;;;;4980787;28;20050;-40
2024/01/11 05:06:24;;;;;;;152.65;143.55;;;-5.50;99.90;;;;;;4981649;28;20053;-40
2024/01/11 05:08:52;;;;;;;141.45;132.65;;;-5.50;99.90;;;;;;4976976;28;20509;-41
2024/01/11 05:11:19;;;;;;;143.90;135.20;;;-5.50;99.90;;;;;;4985148;28;20538;-41
2024/01/11 05:13:48;;;;;;;148.85;139.90;;;-5.50;99.90;;;;;;4983530;28;20591;-39
2024/01/11 05:16:24;;;;;;;139.70;131.18;;;-5.50;99.90;;;;;;4992240;28;20073;-38
2024/01/11 05:18:55;;;;;;;146.73;138.13;;;-5.50;99.90;;;;;;4980596;28;20065;-39
2024/01/11 05:21:21;;;;;;;145.35;136.57;;;-5.60;99.90;;;;;;4976580;28;20054;-40
2024/01/11 05:23:48;;;;;;;136.32;127.70;;;-5.60;99.90;;;;;;4976684;28;20146;-40
2024/01/11 05:26:17;;;;;;;129.40;120.93;;;-5.60;99.90;;;;;;4977972;28;20084;-40
2024/01/11 05:28:43;;;;;;;116.82;109.53;;;-5.60;99.90;;;;;;4981351;28;20501;-40
2024/01/11 05:31:13;;;;;;;118.88;111.20;;;-5.60;99.90;;;;;;4981486;28;20061;-39
2024/01/11 05:33:39;;;;;;;112.22;104.90;;;-5.60;99.90;;;;;;4977750;28;20063;-39
2024/01/11 05:36:05;;;;;;;112.70;105.25;;;-5.60;99.90;;;;;;4975228;28;20424;-39
2024/01/11 05:38:31;;;;;;;98.18;91.20;;;-5.60;99.90;;;;;;4981659;28;20058;-40
2024/01/11 05:40:57;;;;;;;98.28;91.32;;;-5.50;99.90;;;;;;4981815;28;20054;-40
2024/01/11 05:43:23;;;;;;;92.32;85.50;;;-5.50;99.90;;;;;;4980135;28;20129;-39
2024/01/11 05:45:49;;;;;;;88.00;81.63;;;-5.50;99.90;;;;;;4978787;28;20069;-39
2024/01/11 05:48:16;;;;;;;81.05;75.05;;;-5.50;99.90;;;;;;4977139;28;20053;-39
2024/01/11 05:50:42;;;;;;;77.07;71.40;;;-5.50;99.90;;;;;;4976106;28;20077;-41
2024/01/11 05:53:08;;;;;;;80.65;74.25;;;-5.40;99.90;;;;;;4980079;28;20062;-40
2024/01/11 05:55:34;;;;;;;75.22;69.60;;;-5.40;99.90;;;;;;4947594;28;20065;-39
2024/01/11 05:58:00;;;;;;;72.43;66.18;;;-5.40;99.90;;;;;;4980669;28;20061;-39
2024/01/11 06:00:26;;;;;;;72.22;66.53;;;-5.40;99.90;;;;;;4977649;28;20055;-38
2024/01/11 06:02:52;;;;;;;73.70;67.72;;;-5.40;99.90;;;;;;4979262;28;20054;-41
2024/01/11 06:05:17;;;;;;;73.25;67.53;;;-5.40;99.90;;;;;;4978946;28;20054;-41
2024/01/11 06:07:43;;;;;;;69.75;64.18;;;-5.30;99.90;;;;;;4982001;28;20101;-38
2024/01/11 06:10:09;;;;;;;66.78;61.00;;;-5.30;99.90;;;;;;4981249;28;20068;-39
2024/01/11 06:12:35;;;;;;;70.35;64.60;;;-5.40;99.90;;;;;;4977546;28;20055;-40
2024/01/11 06:15:01;;;;;;;67.85;62.15;;;-5.30;99.90;;;;;;4978763;28;20435;-41
2024/01/11 06:17:27;;;;;;;61.65;57.05;;;-5.30;99.90;;;;;;4981034;28;20050;-40
2024/01/11 06:19:54;;;;;;;60.30;55.28;;;-5.40;99.90;;;;;;4977154;28;20073;-40
2024/01/11 06:22:20;;;;;;;66.15;60.60;;;-5.40;99.90;;;;;;4976236;28;20051;-41
2024/01/11 06:24:46;;;;;;;62.97;58.10;;;-5.40;99.90;;;;;;4978016;28;20057;-39
2024/01/11 06:27:11;;;;;;;67.30;61.78;;;-5.40;99.90;;;;;;4976891;28;20054;-41
2024/01/11 06:29:37;;;;;;;63.15;57.78;;;-5.40;99.90;;;;;;4977286;28;20058;-39
2024/01/11 06:32:03;;;;;;;63.47;57.92;;;-5.40;99.90;;;;;;4973424;28;20061;-36
2024/01/11 06:34:29;;;;;;;61.13;55.92;;;-5.40;99.90;;;;;;4979511;28;20061;-38
2024/01/11 06:36:55;;;;;;;63.65;58.33;;;-5.40;99.90;;;;;;4976531;28;20054;-39
2024/01/11 06:39:21;;;;;;;60.10;54.83;;;-5.30;99.90;;;;;;4966491;28;20172;-41
2024/01/11 06:41:46;;;;;;;60.83;55.53;;;-5.30;99.90;;;;;;4977279;28;20104;-38
2024/01/11 06:44:12;;;;;;;61.65;56.10;;;-5.20;99.90;;;;;;4981702;28;20453;-41
2024/01/11 06:46:41;;;;;;;57.90;52.95;;;-5.10;99.90;;;;;;4984660;28;20049;-40
2024/01/11 06:49:10;;;;;;;61.33;55.50;;;-5.00;99.90;;;;;;4975742;28;20134;-38
2024/01/11 06:51:35;;;;;;;54.97;49.97;;;-4.90;99.90;;;;;;4974721;28;20047;-41
2024/01/11 06:54:01;;;;;;;59.08;53.72;;;-4.80;99.90;;;;;;4975274;28;20054;-39
2024/01/11 06:56:27;;;;;;;55.28;50.08;;;-4.70;99.90;;;;;;4976804;28;20500;-42
2024/01/11 06:58:54;;;;;;;56.67;51.63;;;-4.60;99.90;;;;;;4978795;28;20125;-41
2024/01/11 07:01:20;;;;;;;58.22;53.05;;;-4.60;99.90;;;;;;4978602;28;20054;-36
2024/01/11 07:03:46;;;;;;;58.80;53.25;;;-4.50;99.90;;;;;;4982173;28;20085;-38
2024/01/11 07:06:12;;;;;;;58.28;53.22;;;-4.40;99.90;;;;;;4975955;28;20443;-40
2024/01/11 07:08:38;;;;;;;64.45;58.88;;;-4.30;99.90;;;;;;4972739;28;20047;-39
2024/01/11 07:11:04;;;;;;;59.28;54.17;;;-4.30;99.90;;;;;;4979004;28;20066;-41
2024/01/11 07:13:31;;;;;;;58.95;53.70;;;-4.20;99.90;;;;;;4978345;28;20093;-40
2024/01/11 07:15:57;;;;;;;67.63;61.92;;;-4.20;99.90;;;;;;4980189;28;20054;-40
2024/01/11 07:18:24;;;;;;;64.25;58.45;;;-4.20;99.90;;;;;;4982623;28;20061;-39
2024/01/11 07:20:51;;;;;;;63.20;58.03;;;-4.10;99.90;;;;;;4976904;28;20341;-41
2024/01/11 07:23:17;;;;;;;64.25;58.95;;;-4.10;99.90;;;;;;4979373;28;20064;-40
2024/01/11 07:25:43;;;;;;;59.75;54.38;;;-4.00;99.90;;;;;;4979918;28;20050;-41
2024/01/11 07:28:08;;;;;;;62.33;57.03;;;-4.00;99.90;;;;;;4974459;28;20046;-40
2024/01/11 07:30:34;;;;;;;67.35;61.88;;;-3.90;99.90;;;;;;4982443;28;20055;-40
2024/01/11 07:33:00;;;;;;;57.53;52.33;;;-3.90;99.90;;;;;;4967130;28;20053;-39
2024/01/11 07:35:26;;;;;;;65.85;60.15;;;-3.80;99.90;;;;;;4976624;28;20081;-41
2024/01/11 07:37:52;;;;;;;61.33;56.13;;;-3.80;99.90;;;;;;4976445;28;20144;-41
2024/01/11 07:40:18;;;;;;;68.47;62.65;;;-3.80;99.90;;;;;;4981922;28;20054;-41
2024/01/11 07:42:43;;;;;;;62.95;57.63;;;-3.70;99.90;;;;;;4980483;28;20133;-38
2024/01/11 07:45:10;;;;;;;63.10;57.47;;;-3.70;99.90;;;;;;4981804;28;20133;-41
2024/01/11 07:47:39;;;;;;;61.38;56.28;;;-3.60;99.90;;;;;;4984997;28;20053;-41
2024/01/11 07:50:12;;;;;;;64.13;58.63;;;-3.60;99.90;;;;;;4980261;28;20057;-40
2024/01/11 07:52:38;;;;;;;67.35;61.45;;;-3.60;99.90;;;;;;4983579;28;20065;-40
2024/01/11 07:55:08;;;;;;;66.97;61.08;;;-3.50;99.90;;;;;;4977391;28;20068;-40
2024/01/11 07:57:34;;;;;;;68.00;62.40;;;-3.50;99.90;;;;;;4982385;28;20054;-41
2024/01/11 08:00:00;;;;;;;66.88;61.05;;;-3.50;99.90;;;;;;4978961;28;20826;-40
2024/01/11 08:02:26;;;;;;;67.32;62.08;;;-3.50;99.90;;;;;;4982316;28;20054;-38
2024/01/11 08:04:52;;;;;;;68.75;63.28;;;-3.40;99.90;;;;;;4981683;28;20524;-39
2024/01/11 08:07:18;;;;;;;71.65;66.05;;;-3.40;99.90;;;;;;4984110;28;20149;-40
2024/01/11 08:09:46;;;;;;;75.45;69.65;;;-3.30;99.90;;;;;;4980019;28;20051;-40
2024/01/11 08:12:13;;;;;;;73.63;67.80;;;-3.30;99.90;;;;;;4977065;28;20049;-39
2024/01/11 08:14:39;;;;;;;72.25;66.20;;;-3.30;99.90;;;;;;4982874;28;20096;-40
2024/01/11 08:17:05;;;;;;;75.30;69.50;;;-3.30;99.90;;;;;;4976627;28;20511;-41
2024/01/11 08:19:32;;;;;;;78.00;72.20;;;-3.20;99.90;;;;;;4975209;28;20046;-41
2024/01/11 08:21:58;;;;;;;81.57;75.07;;;-3.20;99.90;;;;;;4979446;28;20034;-40
2024/01/11 08:24:24;;;;;;;82.60;76.35;;;-3.20;99.90;;;;;;4979556;28;20051;-39
2024/01/11 08:26:51;;;;;;;85.07;78.63;;;-3.10;99.90;;;;;;4984419;28;20141;-41
2024/01/11 08:29:18;;;;;;;93.38;86.68;;;-3.10;99.90;;;;;;4978353;28;20046;-41
2024/01/11 08:31:44;;;;;;;91.82;85.18;;;-3.00;99.90;;;;;;4980946;28;21320;-41
2024/01/11 08:34:10;;;;;;;98.40;91.45;;;-3.00;99.90;;;;;;4979232;28;20500;-41
2024/01/11 08:36:38;;;;;;;103.85;96.82;;;-3.00;99.90;;;;;;4982140;28;20420;-41
2024/01/11 08:39:08;;;;;;;101.68;94.25;;;-2.90;99.90;;;;;;4979594;28;20077;-41
2024/01/11 08:41:37;;;;;;;113.85;106.15;;;-2.90;99.90;;;;;;4981244;28;20054;-41
2024/01/11 08:44:05;;;;;;;113.25;105.68;;;-2.90;99.90;;;;;;4980809;28;20508;-39
2024/01/11 08:46:33;;;;;;;107.95;100.30;;;-2.80;99.90;;;;;;4980375;28;20492;-40
2024/01/11 08:48:59;;;;;;;125.43;117.35;;;-2.80;99.90;;;;;;4976189;28;20489;-39
2024/01/11 08:51:26;;;;;;;134.30;125.97;;;-2.70;99.90;;;;;;4965677;28;20613;-39
2024/01/11 08:53:55;;;;;;;132.75;124.60;;;-2.70;99.90;;;;;;4983767;28;20095;-40
2024/01/11 08:56:21;;;;;;;147.15;138.35;;;-2.60;99.90;;;;;;4978790;28;20057;-39
2024/01/11 08:58:48;;;;;;;133.73;125.47;;;-2.70;99.90;;;;;;4980685;28;20476;-41
2024/01/11 09:01:14;;;;;;;150.25;140.85;;;-2.60;99.90;;;;;;4980468;28;20050;-38
2024/01/11 09:03:40;;;;;;;139.85;131.15;;;-2.60;99.90;;;;;;4977793;28;20550;-38
2024/01/11 09:06:06;;;;;;;141.63;132.77;;;-2.50;99.90;;;;;;4978756;28;20058;-40
2024/01/11 09:08:32;;;;;;;166.50;156.73;;;-2.50;99.90;;;;;;4978300;28;20063;-40
2024/01/11 09:10:59;;;;;;;185.00;174.45;;;-2.50;99.90;;;;;;4982402;28;20057;-40
2024/01/11 09:13:27;;;;;;;176.07;166.40;;;-2.40;99.90;;;;;;4979670;28;20467;-39
2024/01/11 09:15:53;;;;;;;149.68;140.38;;;-2.40;99.90;;;;;;4975929;28;20065;-38
2024/01/11 09:18:19;;;;;;;175.15;164.43;;;-2.30;99.90;;;;;;4976202;28;20076;-39
2024/01/11 09:20:46;;;;;;;176.93;166.63;;;-2.30;99.90;;;;;;4981159;28;20047;-41
2024/01/11 09:23:12;;;;;;;190.10;179.32;;;-2.30;99.90;;;;;;4977812;28;20055;-38
2024/01/11 09:25:37;;;;;;;164.00;154.20;;;-2.30;99.90;;;;;;4978382;28;20060;-38
2024/01/11 09:28:03;;;;;;;152.02;142.85;;;-2.20;99.90;;;;;;4976689;28;20436;-40
2024/01/11 09:30:29;;;;;;;179.70;169.13;;;-2.10;99.90;;;;;;4977308;28;20084;-41
2024/01/11 09:32:55;;;;;;;170.43;160.40;;;-2.10;99.90;;;;;;4977433;28;20055;-40
2024/01/11 09:35:24;;;;;;;173.82;163.57;;;-2.10;99.90;;;;;;4979745;28;20089;-40
2024/01/11 09:37:51;;;;;;;159.20;149.73;;;-2.00;99.90;;;;;;4980652;28;20096;-42
2024/01/11 09:40:18;;;;;;;139.65;130.98;;;-2.00;99.90;;;;;;4980241;28;20054;-41
2024/01/11 09:42:44;;;;;;;155.75;146.52;;;-2.00;99.90;;;;;;4977635;28;20403;-40
2024/01/11 09:45:13;;;;;;;152.15;142.70;;;-1.90;99.90;;;;;;4980332;28;20180;-40
2024/01/11 09:47:39;;;;;;;137.68;128.52;;;-1.90;99.90;;;;;;4981433;28;20104;-41
2024/01/11 09:50:07;;;;;;;155.13;145.98;;;-1.80;99.90;;;;;;4980319;28;20046;-40
2024/01/11 09:52:33;;;;;;;128.73;120.10;;;-1.80;99.90;;;;;;4988722;28;20054;-41
2024/01/11 09:55:00;;;;;;;97.47;90.55;;;-1.80;99.90;;;;;;4975718;28;20057;-40
2024/01/11 09:57:30;;;;;;;109.30;101.93;;;-1.70;99.90;;;;;;4979205;28;20081;-40
2024/01/11 09:59:57;;;;;;;75.57;69.40;;;-1.70;99.90;;;;;;4978585;28;20197;-40
2024/01/11 10:02:25;;;;;;;78.82;72.28;;;-1.60;99.90;;;;;;4983479;28;20408;-41
2024/01/11 10:04:52;;;;;;;79.05;72.68;;;-1.60;99.90;;;;;;4977400;28;20213;-41
2024/01/11 10:07:22;;;;;;;84.10;77.57;;;-1.50;99.90;;;;;;4978138;28;20051;-40
2024/01/11 10:09:49;;;;;;;64.97;58.92;;;-1.50;99.90;;;;;;4978483;28;20141;-40
2024/01/11 10:12:15;;;;;;;58.47;52.72;;;-1.50;99.90;;;;;;4978600;28;20076;-41
2024/01/11 10:14:41;;;;;;;66.03;60.28;;;-1.40;99.90;;;;;;4961443;28;20050;-41
2024/01/11 10:17:07;;;;;;;57.22;51.80;;;-1.40;99.90;;;;;;4977223;28;20086;-40
2024/01/11 10:19:33;;;;;;;48.90;43.65;;;-1.30;99.90;;;;;;4979036;28;20055;-40
2024/01/11 10:21:59;;;;;;;46.33;41.40;;;-1.30;99.90;;;;;;4976197;28;20038;-41
2024/01/11 10:24:28;;;;;;;56.78;50.90;;;-1.30;99.90;;;;;;4980998;28;20517;-41
2024/01/11 10:26:58;;;;;;;43.45;38.67;;;-1.20;99.90;;;;;;4979046;28;20042;-40
2024/01/11 10:29:36;;;;;;;40.03;33.33;;;-1.20;99.90;;;;;;4977861;28;21156;-39
2024/01/11 10:32:03;;;;;;;50.90;35.45;;;-1.10;99.90;;;;;;4974329;28;20043;-39
2024/01/11 10:34:29;;;;;;;39.63;32.35;;;-1.00;99.90;;;;;;4979133;28;20497;-40
2024/01/11 10:36:56;;;;;;;40.55;31.35;;;-1.00;99.90;;;;;;4977124;28;20055;-41
2024/01/11 10:39:27;;;;;;;36.60;29.75;;;-1.00;99.90;;;;;;4975025;28;20139;-40
2024/01/11 10:42:07;;;;;;;36.47;27.92;;;-0.90;99.90;;;;;;4978821;28;20133;-40
2024/01/11 10:44:42;;;;;;;40.33;32.13;;;-0.80;99.90;;;;;;4978608;28;20524;-39
2024/01/11 10:47:10;;;;;;;45.08;34.38;;;-0.80;99.90;;;;;;4976807;28;20556;-40
2024/01/11 10:49:40;;;;;;;42.58;31.35;;;-0.70;99.90;;;;;;4978739;28;20050;-40
2024/01/11 10:52:08;;;;;;;39.47;28.45;;;-0.70;99.90;;;;;;4981807;28;20100;-40
2024/01/11 10:54:34;;;;;;;44.83;32.35;;;-0.60;99.90;;;;;;4976457;28;20527;-41
2024/01/11 10:57:01;;;;;;;44.33;30.73;;;-0.60;99.90;;;;;;4988689;28;20096;-41
2024/01/11 10:59:27;;;;;;;47.55;31.85;;;-0.50;99.90;;;;;;4978837;28;20054;-39
2024/01/11 11:01:58;;;;;;;47.13;29.98;;;-0.40;99.90;;;;;;4976665;28;20046;-39
2024/01/11 11:04:25;;;;;;;40.08;28.40;;;-0.40;99.90;;;;;;4973793;28;20073;-40
2024/01/11 11:06:57;;;;;;;45.72;29.92;;;-0.40;99.90;;;;;;4973484;28;20054;-40
2024/01/11 11:09:24;;;;;;;42.97;29.77;;;-0.40;99.90;;;;;;4976019;28;20046;-41
2024/01/11 11:11:51;;;;;;;42.58;29.75;;;-0.30;99.90;;;;;;4975691;28;20055;-40
2024/01/11 11:14:18;;;;;;;42.40;27.50;;;-0.20;99.90;;;;;;4976360;28;20063;-41
2024/01/11 11:16:45;;;;;;;43.70;29.95;;;-0.20;99.90;;;;;;4975580;28;20054;-40
2024/01/11 11:19:12;;;;;;;40.60;28.08;;;-0.20;99.90;;;;;;4960359;28;20050;-40
2024/01/11 11:21:44;;;;;;;36.08;26.98;;;-0.20;99.90;;;;;;4972221;28;20058;-40
2024/01/11 11:24:11;;;;;;;44.22;32.65;;;-0.10;99.90;;;;;;4974817;28;20077;-41
2024/01/11 11:26:37;;;;;;;44.65;31.08;;;-0.10;99.90;;;;;;4976238;28;20054;-41
2024/01/11 11:29:06;;;;;;;43.70;30.02;;;-0.10;99.90;;;;;;4967097;28;20572;-40
2024/01/11 11:31:36;;;;;;;44.00;30.20;;;0.00;99.90;;;;;;4973945;28;20116;-41
2024/01/11 11:34:04;;;;;;;46.03;32.28;;;0.00;99.90;;;;;;4974940;28;20058;-41
2024/01/11 11:36:30;;;;;;;47.58;33.55;;;0.00;99.90;;;;;;4979006;28;20058;-42
2024/01/11 11:39:00;;;;;;;50.15;35.25;;;0.00;99.90;;;;;;4972397;28;20185;-38
2024/01/11 11:41:27;;;;;;;43.63;30.40;;;0.00;99.90;;;;;;4979965;28;20072;-41
2024/01/11 11:43:53;;;;;;;44.05;32.63;;;0.10;99.90;;;;;;4974222;28;20090;-42
2024/01/11 11:46:19;;;;;;;42.75;30.65;;;0.10;99.90;;;;;;4973747;28;20489;-41
2024/01/11 11:48:52;;;;;;;46.63;33.15;;;0.10;99.90;;;;;;4975780;28;20142;-42
2024/01/11 11:51:20;;;;;;;46.88;34.38;;;0.10;99.90;;;;;;4955630;28;20057;-39
2024/01/11 11:53:48;;;;;;;47.08;34.92;;;0.10;99.90;;;;;;4971598;28;20046;-42
2024/01/11 11:56:16;;;;;;;49.30;35.08;;;0.10;99.90;;;;;;4980021;28;20137;-39
2024/01/11 11:58:43;;;;;;;45.35;31.80;;;0.20;99.90;;;;;;4979824;28;20054;-40
2024/01/11 12:01:09;;;;;;;43.63;32.22;;;0.20;99.90;;;;;;4973431;28;20082;-40
2024/01/11 12:03:41;;;;;;;46.15;30.98;;;0.20;99.90;;;;;;4976051;28;20461;-41
2024/01/11 12:06:10;;;;;;;45.92;30.98;;;0.30;99.90;;;;;;4949534;28;20385;-40
2024/01/11 12:08:36;;;;;;;41.22;29.75;;;0.30;99.90;;;;;;4972802;28;20055;-41
2024/01/11 12:11:02;;;;;;;42.63;29.83;;;0.30;99.90;;;;;;4981589;28;20058;-39
2024/01/11 12:13:28;;;;;;;40.25;28.65;;;0.40;99.90;;;;;;4974437;28;20141;-40